Time;durP1;ratioP1;P1;durP2;ratioP2;P2;SDS_P1;SDS_P2;PMS_P1;PMS_P2;Temp;Humidity;BMP_temperature;BMP_pressure;BME280_temperature;BME280_humidity;BME280_pressure;Samples;Min_cycle;Max_cycle;Signal;HPM_P1;HPM_P2
2022/05/29 00:00:46;;;;;;;7.28;1.80;;;12.70;99.90;;;;;;5092641;28;20042;-77
2022/05/29 00:03:11;;;;;;;5.70;1.80;;;12.50;99.90;;;;;;5092728;28;20024;-76
2022/05/29 00:05:38;;;;;;;6.90;2.20;;;12.50;99.90;;;;;;5092640;28;20532;-79
2022/05/29 00:08:05;;;;;;;8.10;1.40;;;12.50;99.90;;;;;;5092834;28;20024;-76
2022/05/29 00:10:35;;;;;;;10.35;1.92;;;12.60;99.90;;;;;;5092532;28;20031;-79
2022/05/29 00:13:01;;;;;;;5.88;1.88;;;12.40;99.90;;;;;;5084630;28;20025;-80
2022/05/29 00:15:27;;;;;;;9.73;2.13;;;12.30;99.90;;;;;;5071986;28;20061;-79
2022/05/29 00:17:53;;;;;;;7.60;2.22;;;12.30;99.90;;;;;;5076191;28;20132;-80
2022/05/29 00:20:18;;;;;;;16.63;3.00;;;12.30;99.90;;;;;;5090808;28;20020;-77
2022/05/29 00:22:44;;;;;;;16.70;2.65;;;12.30;99.90;;;;;;5078471;28;20384;-80
2022/05/29 00:25:11;;;;;;;9.55;1.90;;;12.30;99.90;;;;;;5092432;28;20452;-80
2022/05/29 00:27:37;;;;;;;12.65;2.08;;;12.30;99.90;;;;;;5092295;28;20024;-81
2022/05/29 00:30:07;;;;;;;8.77;2.10;;;12.30;99.90;;;;;;5085017;28;20052;-80
2022/05/29 00:32:33;;;;;;;17.05;3.65;;;12.30;99.90;;;;;;5086422;28;20012;-80
2022/05/29 00:34:59;;;;;;;13.50;2.25;;;12.20;99.90;;;;;;5092201;28;20028;-80
2022/05/29 00:37:25;;;;;;;8.32;1.80;;;12.10;99.90;;;;;;5091267;28;20035;-80
2022/05/29 00:39:52;;;;;;;9.40;2.20;;;12.10;99.90;;;;;;5092393;28;20389;-80
2022/05/29 00:42:21;;;;;;;17.10;1.95;;;12.10;99.90;;;;;;5092060;28;20506;-80
2022/05/29 00:44:47;;;;;;;17.58;1.83;;;12.00;99.90;;;;;;5092454;28;20020;-78
2022/05/29 00:47:16;;;;;;;9.80;1.85;;;11.90;99.90;;;;;;5084015;28;20031;-80
2022/05/29 00:49:43;;;;;;;10.63;1.60;;;12.00;99.90;;;;;;5076252;28;20037;-80
2022/05/29 00:52:18;;;;;;;15.27;1.55;;;11.90;99.90;;;;;;5091071;28;20114;-80
2022/05/29 00:54:55;;;;;;;9.70;2.17;;;11.90;99.90;;;;;;5091249;28;20043;-80
2022/05/29 00:57:30;;;;;;;8.88;1.90;;;11.90;99.90;;;;;;5090608;28;20495;-80
2022/05/29 01:00:00;;;;;;;10.07;1.70;;;11.90;99.90;;;;;;5092273;28;20028;-79
2022/05/29 01:02:26;;;;;;;6.25;2.08;;;11.90;99.90;;;;;;5092320;28;20043;-81
2022/05/29 01:04:52;;;;;;;7.43;1.83;;;11.80;99.90;;;;;;5093891;28;20032;-81
2022/05/29 01:07:20;;;;;;;10.23;2.03;;;11.80;99.90;;;;;;5094955;28;20044;-80
2022/05/29 01:09:48;;;;;;;11.15;1.50;;;11.80;99.90;;;;;;5094734;28;20468;-80
2022/05/29 01:12:39;;;;;;;13.23;1.73;;;12.00;99.90;;;;;;5095618;28;20062;-81
2022/05/29 01:15:15;;;;;;;14.20;2.40;;;12.30;99.90;;;;;;5095775;28;20024;-78
2022/05/29 01:17:54;;;;;;;11.43;3.25;;;12.50;99.90;;;;;;5096047;28;20031;-82
2022/05/29 01:21:01;;;;;;;13.98;3.75;;;12.50;99.90;;;;;;5095954;28;20070;-79
2022/05/29 01:23:55;;;;;;;6.43;1.58;;;11.70;99.90;;;;;;5079577;28;20055;-81
2022/05/29 01:26:58;;;;;;;9.70;1.83;;;11.20;99.90;;;;;;5077973;28;20377;-82
2022/05/29 01:29:32;;;;;;;7.97;1.90;;;11.00;99.90;;;;;;5094077;28;20081;-81
2022/05/29 01:32:06;;;;;;;5.75;1.80;;;11.20;99.90;;;;;;5095451;28;20492;-82
2022/05/29 01:34:47;;;;;;;3.58;1.73;;;11.00;99.90;;;;;;5095593;28;20062;-82
2022/05/29 01:37:45;;;;;;;8.80;2.22;;;11.10;99.90;;;;;;5095435;28;20046;-83
2022/05/29 01:40:46;;;;;;;9.60;2.33;;;11.40;99.90;;;;;;5085682;28;20044;-83
2022/05/29 01:43:23;;;;;;;6.88;1.90;;;11.50;99.90;;;;;;5095201;28;20039;-82
2022/05/29 01:45:58;;;;;;;8.07;1.83;;;11.60;99.90;;;;;;5095332;28;20081;-82
2022/05/29 01:48:37;;;;;;;10.10;2.58;;;11.60;99.90;;;;;;5095242;28;20040;-82
2022/05/29 01:51:20;;;;;;;4.50;1.65;;;11.80;99.90;;;;;;5085575;28;20044;-82
2022/05/29 01:53:57;;;;;;;9.43;2.50;;;11.60;99.90;;;;;;5094880;28;20359;-83
2022/05/29 01:56:31;;;;;;;4.78;1.67;;;11.50;99.90;;;;;;5095152;28;20040;-82
2022/05/29 01:59:07;;;;;;;8.23;1.60;;;11.10;99.90;;;;;;5076895;28;20499;-82
2022/05/29 02:01:38;;;;;;;8.40;1.98;;;10.90;99.90;;;;;;5094863;28;20556;-82
2022/05/29 02:04:08;;;;;;;6.13;1.50;;;10.90;99.90;;;;;;5094836;28;20123;-82
2022/05/29 02:09:33;;;;;;;10.35;2.00;;;10.80;99.90;;;;;;5094614;28;20043;-81
2022/05/29 02:12:01;;;;;;;6.40;2.80;;;10.90;99.90;;;;;;5093693;28;20491;-82
2022/05/29 02:14:34;;;;;;;7.38;2.67;;;11.00;99.90;;;;;;5094396;28;20035;-82
2022/05/29 02:17:15;;;;;;;10.73;4.13;;;11.10;99.90;;;;;;5094518;28;20111;-82
2022/05/29 02:19:48;;;;;;;13.60;4.05;;;11.30;99.90;;;;;;5094601;28;20476;-81
2022/05/29 02:22:23;;;;;;;7.28;3.72;;;11.30;99.90;;;;;;5080210;28;20502;-81
2022/05/29 02:24:51;;;;;;;8.93;3.58;;;11.40;99.90;;;;;;5094517;28;20071;-81
2022/05/29 02:27:31;;;;;;;7.90;3.60;;;11.20;99.90;;;;;;5094465;28;20586;-82
2022/05/29 02:29:59;;;;;;;6.22;3.60;;;11.10;99.90;;;;;;5076521;28;20019;-82
2022/05/29 02:33:07;;;;;;;5.13;1.60;;;10.90;99.90;;;;;;5094250;28;20048;-81
2022/05/29 02:35:54;;;;;;;4.18;1.38;;;10.50;99.90;;;;;;5093119;28;20019;-81
2022/05/29 02:38:31;;;;;;;10.13;1.65;;;10.40;99.90;;;;;;5081758;28;20055;-81
2022/05/29 02:40:58;;;;;;;9.70;1.70;;;10.40;99.90;;;;;;5092914;28;20066;-80
2022/05/29 02:43:49;;;;;;;4.60;1.48;;;10.50;99.90;;;;;;5093176;28;20116;-80
2022/05/29 02:46:27;;;;;;;6.57;1.40;;;10.50;99.90;;;;;;5092824;28;20114;-82
2022/05/29 02:48:59;;;;;;;10.40;1.83;;;10.70;99.90;;;;;;5088733;28;20042;-81
2022/05/29 02:51:46;;;;;;;7.72;2.22;;;11.00;99.90;;;;;;5091661;28;20577;-82
2022/05/29 02:54:27;;;;;;;6.85;2.17;;;11.20;99.90;;;;;;5092918;28;20519;-80
2022/05/29 02:56:54;;;;;;;9.98;3.17;;;11.40;99.90;;;;;;5075662;28;20028;-82
2022/05/29 02:59:22;;;;;;;15.18;3.55;;;11.50;99.90;;;;;;5086440;28;20051;-81
2022/05/29 03:01:54;;;;;;;9.95;3.33;;;11.70;99.90;;;;;;5093978;28;20357;-82
2022/05/29 03:04:37;;;;;;;4.80;2.85;;;11.70;99.90;;;;;;5092612;28;20035;-79
2022/05/29 03:07:45;;;;;;;10.07;3.13;;;11.50;99.90;;;;;;5079790;28;20032;-82
2022/05/29 03:10:35;;;;;;;11.52;3.33;;;11.30;99.90;;;;;;5093608;28;20081;-81
2022/05/29 03:13:19;;;;;;;10.18;2.67;;;11.00;99.90;;;;;;5093125;28;20492;-82
2022/05/29 03:16:07;;;;;;;15.77;4.32;;;10.70;99.90;;;;;;5080077;28;20051;-81
2022/05/29 03:18:46;;;;;;;10.18;3.65;;;10.60;99.90;;;;;;5092582;28;20059;-82
2022/05/29 03:21:45;;;;;;;8.00;3.45;;;10.40;99.90;;;;;;5086136;28;20036;-80
2022/05/29 03:24:50;;;;;;;11.77;4.47;;;10.30;99.90;;;;;;5090916;28;20134;-82
2022/05/29 03:27:29;;;;;;;9.93;3.70;;;10.30;99.90;;;;;;5070196;28;20056;-82
2022/05/29 03:30:09;;;;;;;6.72;2.85;;;10.20;99.90;;;;;;5070960;28;20040;-82
2022/05/29 03:32:36;;;;;;;6.90;2.72;;;10.10;99.90;;;;;;5074912;28;20040;-81
2022/05/29 03:35:25;;;;;;;6.80;2.55;;;10.20;99.90;;;;;;5092685;28;20102;-79
2022/05/29 03:37:52;;;;;;;14.38;3.30;;;10.30;99.90;;;;;;5093185;28;20028;-76
2022/05/29 03:40:18;;;;;;;8.73;2.95;;;10.10;99.90;;;;;;5093276;28;20032;-76
2022/05/29 03:42:44;;;;;;;7.93;2.97;;;10.10;99.90;;;;;;5091786;28;20020;-81
2022/05/29 03:45:11;;;;;;;5.57;2.28;;;10.10;99.90;;;;;;5091943;28;20042;-82
2022/05/29 03:47:37;;;;;;;8.13;2.25;;;10.00;99.90;;;;;;5093210;28;20016;-80
2022/05/29 03:50:06;;;;;;;7.10;2.38;;;9.90;99.90;;;;;;5085467;28;20032;-80
2022/05/29 03:52:33;;;;;;;8.23;2.70;;;10.00;99.90;;;;;;5093108;28;20031;-82
2022/05/29 03:54:59;;;;;;;9.65;2.60;;;9.90;99.90;;;;;;5092620;28;20042;-82
2022/05/29 03:57:26;;;;;;;11.27;2.50;;;10.20;99.90;;;;;;5091969;28;20027;-82
2022/05/29 03:59:52;;;;;;;15.90;2.78;;;10.20;99.90;;;;;;5092686;28;20154;-82
2022/05/29 04:02:19;;;;;;;6.63;2.63;;;10.30;99.90;;;;;;5092990;28;20536;-80
2022/05/29 04:04:44;;;;;;;7.35;2.20;;;10.20;99.90;;;;;;5077421;28;20123;-81
2022/05/29 04:07:10;;;;;;;5.30;2.85;;;10.20;99.90;;;;;;5093074;28;20142;-83
2022/05/29 04:12:21;;;;;;;6.78;2.05;;;10.00;99.90;;;;;;5080927;28;20070;-82
2022/05/29 04:14:47;;;;;;;10.30;2.92;;;9.80;99.90;;;;;;5092534;28;20074;-82
2022/05/29 04:17:17;;;;;;;17.98;2.58;;;9.70;99.90;;;;;;5092958;28;20112;-83
2022/05/29 04:19:44;;;;;;;11.95;3.58;;;9.80;99.90;;;;;;5092620;28;20074;-83
2022/05/29 04:22:17;;;;;;;11.18;2.78;;;9.90;99.90;;;;;;5078112;28;20099;-82
2022/05/29 04:24:43;;;;;;;12.73;2.67;;;9.90;99.90;;;;;;5091400;28;20488;-82
2022/05/29 04:27:11;;;;;;;9.30;2.40;;;10.00;99.90;;;;;;5092598;28;20021;-82
2022/05/29 04:29:38;;;;;;;8.20;2.70;;;10.10;99.90;;;;;;5092780;28;20028;-83
2022/05/29 04:34:54;;;;;;;8.98;2.78;;;10.20;99.90;;;;;;5074729;28;20044;-83
2022/05/29 04:37:20;;;;;;;7.97;2.97;;;10.20;99.90;;;;;;5085577;28;20044;-82
2022/05/29 04:39:45;;;;;;;10.40;2.80;;;10.20;99.90;;;;;;5096615;28;20032;-82
2022/05/29 04:42:11;;;;;;;10.40;2.63;;;10.10;99.90;;;;;;5096714;28;20078;-83
2022/05/29 04:44:38;;;;;;;7.43;2.67;;;10.10;99.90;;;;;;5096618;28;20035;-83
2022/05/29 04:47:04;;;;;;;8.85;2.47;;;10.30;99.90;;;;;;5096319;28;20028;-82
2022/05/29 04:49:29;;;;;;;6.40;2.33;;;10.40;99.90;;;;;;5088806;28;20102;-82
2022/05/29 04:51:56;;;;;;;7.10;2.65;;;10.40;99.90;;;;;;5096341;28;20055;-78
2022/05/29 04:54:22;;;;;;;9.50;2.90;;;10.30;99.90;;;;;;5096617;28;20035;-78
2022/05/29 04:56:48;;;;;;;9.82;2.60;;;10.50;99.90;;;;;;5095820;28;20388;-81
2022/05/29 04:59:15;;;;;;;8.77;2.42;;;10.30;99.90;;;;;;5096287;28;20028;-80
2022/05/29 05:01:41;;;;;;;13.38;2.78;;;10.30;99.90;;;;;;5096200;28;20019;-81
2022/05/29 05:04:06;;;;;;;10.32;2.65;;;10.20;99.90;;;;;;5095925;28;20039;-80
2022/05/29 05:06:32;;;;;;;8.25;2.28;;;10.00;99.90;;;;;;5096143;28;20028;-80
2022/05/29 05:08:58;;;;;;;7.47;3.22;;;10.10;99.90;;;;;;5094463;28;20476;-81
2022/05/29 05:11:24;;;;;;;8.70;2.72;;;10.00;99.90;;;;;;5094775;28;20036;-76
2022/05/29 05:13:50;;;;;;;4.38;2.55;;;10.10;99.90;;;;;;5096115;28;20012;-81
2022/05/29 05:16:16;;;;;;;10.02;2.90;;;10.10;99.90;;;;;;5095893;28;20388;-79
2022/05/29 05:18:41;;;;;;;15.68;3.30;;;10.00;99.90;;;;;;5095610;28;20027;-77
2022/05/29 05:21:08;;;;;;;11.25;3.08;;;10.00;99.90;;;;;;5089411;28;20119;-78
2022/05/29 05:23:34;;;;;;;8.98;3.00;;;10.00;99.90;;;;;;5088125;28;20071;-76
2022/05/29 05:26:00;;;;;;;14.63;3.25;;;10.00;99.90;;;;;;5095611;28;20028;-83
2022/05/29 05:28:26;;;;;;;9.90;2.88;;;10.20;99.90;;;;;;5094626;28;20028;-82
2022/05/29 05:30:52;;;;;;;7.53;3.03;;;10.10;99.90;;;;;;5095529;28;20031;-76
2022/05/29 05:33:19;;;;;;;13.38;3.53;;;10.10;99.90;;;;;;5094110;28;20035;-78
2022/05/29 05:35:44;;;;;;;7.45;3.10;;;10.20;99.90;;;;;;5096048;28;20479;-84
2022/05/29 05:38:10;;;;;;;5.40;3.20;;;10.10;99.90;;;;;;5096368;28;20052;-85
2022/05/29 05:40:36;;;;;;;7.25;2.88;;;10.10;99.90;;;;;;5096289;28;20059;-82
2022/05/29 05:43:02;;;;;;;10.77;3.30;;;10.30;99.90;;;;;;5089421;28;20480;-81
2022/05/29 05:45:27;;;;;;;7.20;2.95;;;10.30;99.90;;;;;;5076443;28;20119;-77
2022/05/29 05:47:54;;;;;;;12.48;3.40;;;10.30;99.90;;;;;;5078864;28;20040;-75
2022/05/29 05:50:20;;;;;;;9.18;3.33;;;10.60;99.90;;;;;;5089429;28;20495;-77
2022/05/29 05:52:46;;;;;;;10.40;3.10;;;10.50;99.90;;;;;;5094128;28;20031;-75
2022/05/29 05:55:12;;;;;;;10.85;3.25;;;10.50;99.90;;;;;;5078120;28;20070;-75
2022/05/29 05:57:39;;;;;;;6.38;2.85;;;10.60;99.90;;;;;;5080768;28;20020;-78
2022/05/29 06:00:09;;;;;;;13.80;3.90;;;10.70;99.90;;;;;;5085746;28;20021;-77
2022/05/29 06:02:35;;;;;;;11.23;3.55;;;10.80;99.90;;;;;;5075974;28;20029;-78
2022/05/29 06:05:01;;;;;;;13.50;3.40;;;11.00;99.90;;;;;;5083923;28;20021;-78
2022/05/29 06:07:27;;;;;;;8.77;3.28;;;11.00;99.90;;;;;;5077007;28;20241;-79
2022/05/29 06:09:52;;;;;;;15.85;3.30;;;11.00;99.90;;;;;;5089430;28;20020;-79
2022/05/29 06:12:21;;;;;;;10.48;2.78;;;11.00;99.90;;;;;;5086416;28;20028;-79
2022/05/29 06:14:47;;;;;;;10.20;3.28;;;11.10;99.90;;;;;;5074398;28;20032;-79
2022/05/29 06:17:13;;;;;;;15.75;3.30;;;11.10;99.90;;;;;;5080346;28;20031;-79
2022/05/29 06:19:39;;;;;;;12.60;3.35;;;11.30;99.90;;;;;;5074073;28;20420;-79
2022/05/29 06:22:07;;;;;;;15.60;5.13;;;11.60;99.90;;;;;;5078377;28;20039;-74
2022/05/29 06:24:33;;;;;;;10.98;4.68;;;12.10;99.90;;;;;;5083705;28;20023;-79
2022/05/29 06:26:59;;;;;;;4.55;2.83;;;12.20;99.90;;;;;;5109026;28;20012;-79
2022/05/29 06:29:26;;;;;;;10.20;2.40;;;12.30;99.90;;;;;;5101465;28;20497;-78
2022/05/29 06:31:53;;;;;;;3.30;2.00;;;12.30;99.90;;;;;;5098017;28;20032;-78
2022/05/29 06:34:21;;;;;;;9.63;6.82;;;12.50;99.90;;;;;;5095545;28;20044;-79
2022/05/29 06:36:47;;;;;;;10.63;8.60;;;12.80;99.90;;;;;;5110558;28;20085;-79
2022/05/29 06:39:12;;;;;;;8.05;4.90;;;12.80;99.90;;;;;;5106474;28;20032;-79
2022/05/29 06:41:39;;;;;;;6.28;1.98;;;12.80;99.90;;;;;;5096833;28;20055;-79
2022/05/29 06:44:06;;;;;;;8.82;2.08;;;12.70;99.90;;;;;;5096546;28;20113;-78
2022/05/29 06:46:33;;;;;;;6.07;2.80;;;12.90;99.90;;;;;;5097280;28;20094;-75
2022/05/29 06:48:58;;;;;;;5.60;1.52;;;13.10;99.90;;;;;;5104388;28;20023;-79
2022/05/29 06:51:24;;;;;;;4.32;1.80;;;13.30;99.90;;;;;;5088833;28;20103;-78
2022/05/29 06:53:52;;;;;;;5.35;1.67;;;13.70;99.90;;;;;;5074880;28;20028;-79
2022/05/29 06:56:19;;;;;;;4.70;1.63;;;13.90;99.90;;;;;;5076239;28;20020;-78
2022/05/29 06:58:46;;;;;;;7.03;1.27;;;14.20;99.90;;;;;;5076699;28;20466;-78
2022/05/29 07:07:22;;;;;;;3.42;1.08;;;14.30;99.90;;;;;;5051917;28;20052;-78
2022/05/29 07:09:49;;;;;;;3.13;1.00;;;14.00;99.90;;;;;;5052912;28;20043;-78
2022/05/29 07:12:27;;;;;;;7.05;1.42;;;14.00;99.90;;;;;;5067201;28;20127;-79
2022/05/29 07:15:00;;;;;;;6.40;1.13;;;13.80;99.90;;;;;;5072663;28;20032;-77
2022/05/29 07:17:27;;;;;;;4.30;1.00;;;13.80;99.90;;;;;;5079279;28;20081;-76
2022/05/29 07:19:53;;;;;;;3.83;1.10;;;13.50;99.90;;;;;;5073601;28;20017;-76
2022/05/29 07:22:20;;;;;;;5.20;1.42;;;13.20;99.90;;;;;;5081160;28;20036;-78
2022/05/29 07:24:46;;;;;;;8.02;1.30;;;13.30;99.90;;;;;;5110525;28;20016;-79
2022/05/29 07:27:12;;;;;;;3.70;1.45;;;13.40;99.90;;;;;;5106349;28;20376;-75
2022/05/29 07:29:39;;;;;;;10.70;2.05;;;13.40;99.90;;;;;;5097907;28;20028;-78
2022/05/29 07:32:05;;;;;;;6.88;1.90;;;13.50;99.90;;;;;;5086210;28;20020;-78
2022/05/29 07:34:31;;;;;;;8.23;1.85;;;13.40;99.90;;;;;;5076357;28;20021;-78
2022/05/29 07:37:12;;;;;;;6.13;1.65;;;13.50;99.90;;;;;;5072599;28;20048;-79
2022/05/29 07:39:50;;;;;;;4.25;1.48;;;13.70;99.90;;;;;;5072183;28;20412;-78
2022/05/29 07:45:01;;;;;;;4.05;1.20;;;13.40;99.90;;;;;;5071705;28;20046;-77
2022/05/29 07:47:27;;;;;;;4.85;1.00;;;13.50;99.90;;;;;;5076129;28;20100;-78
2022/05/29 07:49:55;;;;;;;7.32;0.98;;;13.50;99.90;;;;;;5077468;28;20032;-77
2022/05/29 07:52:21;;;;;;;3.50;1.13;;;13.60;99.90;;;;;;5080138;28;20462;-78
2022/05/29 07:54:47;;;;;;;5.40;1.23;;;13.60;99.90;;;;;;5074525;28;20056;-78
2022/05/29 07:57:13;;;;;;;4.22;0.95;;;13.50;99.90;;;;;;5075508;28;20361;-78
2022/05/29 07:59:39;;;;;;;3.78;1.17;;;13.40;99.90;;;;;;5079166;28;20024;-79
2022/05/29 08:02:06;;;;;;;6.82;1.63;;;13.50;99.90;;;;;;5090252;28;20036;-78
2022/05/29 08:04:31;;;;;;;2.53;0.88;;;13.70;99.90;;;;;;5079492;28;20050;-78
2022/05/29 08:06:57;;;;;;;3.55;1.13;;;13.60;99.90;;;;;;5078889;28;20058;-78
2022/05/29 08:09:23;;;;;;;7.15;1.20;;;13.30;99.90;;;;;;5095929;28;20051;-78
2022/05/29 08:11:49;;;;;;;6.47;1.38;;;13.10;99.90;;;;;;5089853;28;20020;-78
2022/05/29 08:14:15;;;;;;;8.68;2.53;;;12.80;99.90;;;;;;5090187;28;20028;-77
2022/05/29 08:16:41;;;;;;;8.70;3.33;;;12.90;99.90;;;;;;5085538;28;20522;-75
2022/05/29 08:19:07;;;;;;;7.38;1.80;;;13.10;99.90;;;;;;5072920;28;20021;-78
2022/05/29 08:21:34;;;;;;;7.18;1.42;;;13.20;99.90;;;;;;5076077;28;20033;-77
2022/05/29 08:32:14;;;;;;;4.68;1.52;;;12.90;99.90;;;;;;5091477;28;20044;-78
2022/05/29 08:34:40;;;;;;;6.03;1.30;;;13.00;99.90;;;;;;5087842;28;20028;-76
2022/05/29 08:37:05;;;;;;;7.47;1.25;;;13.00;99.90;;;;;;5080873;28;20082;-78
2022/05/29 08:39:32;;;;;;;8.00;1.60;;;13.20;99.90;;;;;;5086259;28;20033;-78
2022/05/29 08:41:59;;;;;;;5.55;1.50;;;13.30;99.90;;;;;;5100408;28;20027;-78
2022/05/29 08:44:39;;;;;;;7.50;1.45;;;13.50;99.90;;;;;;5090149;28;20044;-78
2022/05/29 08:47:05;;;;;;;4.70;1.35;;;13.60;99.90;;;;;;5078355;28;20031;-75
2022/05/29 08:49:38;;;;;;;9.90;1.52;;;13.80;99.90;;;;;;5079639;28;20047;-78
2022/05/29 08:52:12;;;;;;;5.70;1.38;;;13.90;99.90;;;;;;5103772;28;20027;-78
2022/05/29 08:54:52;;;;;;;7.57;1.52;;;13.90;99.90;;;;;;5092832;28;20063;-78
2022/05/29 08:57:34;;;;;;;5.40;1.33;;;13.80;99.90;;;;;;5081711;28;20568;-76
2022/05/29 09:00:04;;;;;;;5.00;2.20;;;14.20;99.90;;;;;;5072363;28;20035;-79
2022/05/29 09:02:40;;;;;;;5.60;1.48;;;14.00;99.90;;;;;;5088580;28;20063;-79
2022/05/29 09:05:17;;;;;;;6.72;0.73;;;13.20;99.90;;;;;;5070655;28;20029;-79
2022/05/29 09:07:43;;;;;;;2.97;1.02;;;12.40;99.90;;;;;;5070325;28;20033;-78
2022/05/29 09:10:44;;;;;;;8.40;1.50;;;12.10;99.90;;;;;;5069816;28;20496;-78
2022/05/29 09:13:17;;;;;;;12.18;1.75;;;11.70;99.90;;;;;;5070920;28;20051;-78
2022/05/29 09:15:53;;;;;;;7.05;1.80;;;11.80;99.90;;;;;;5071768;28;20384;-78
2022/05/29 09:18:29;;;;;;;7.70;2.58;;;12.10;99.90;;;;;;5071603;28;20043;-77
2022/05/29 09:21:02;;;;;;;5.15;2.20;;;12.30;99.90;;;;;;5070507;28;20473;-78
2022/05/29 09:23:34;;;;;;;4.60;1.90;;;12.60;99.90;;;;;;5081827;28;20503;-78
2022/05/29 09:26:03;;;;;;;7.18;1.83;;;13.10;99.90;;;;;;5095198;28;20366;-77
2022/05/29 09:28:37;;;;;;;6.18;2.47;;;13.30;99.90;;;;;;5095669;28;20166;-78
2022/05/29 09:31:09;;;;;;;8.63;2.50;;;13.60;99.90;;;;;;5094211;28;20031;-78
2022/05/29 09:33:37;;;;;;;4.43;1.60;;;13.80;99.90;;;;;;5095471;28;20450;-77
2022/05/29 09:36:22;;;;;;;5.47;1.40;;;14.00;99.90;;;;;;5095268;28;20062;-77
2022/05/29 09:39:05;;;;;;;5.53;1.60;;;13.70;99.90;;;;;;5095328;28;20384;-77
2022/05/29 09:41:46;;;;;;;5.75;1.92;;;13.30;99.90;;;;;;5082873;28;20040;-77
2022/05/29 09:44:17;;;;;;;3.67;1.40;;;13.40;99.90;;;;;;5074383;28;20024;-77
2022/05/29 09:46:46;;;;;;;5.65;1.73;;;14.00;99.90;;;;;;5072973;28;20412;-74
2022/05/29 09:49:41;;;;;;;3.72;1.52;;;13.90;99.90;;;;;;5083289;28;20028;-78
2022/05/29 09:52:19;;;;;;;6.60;1.40;;;14.30;99.90;;;;;;5074578;28;20029;-77
2022/05/29 09:55:22;;;;;;;4.10;1.50;;;14.50;99.90;;;;;;5075034;28;20032;-77
2022/05/29 09:57:49;;;;;;;7.03;1.80;;;14.60;99.90;;;;;;5074483;28;20040;-77
2022/05/29 10:00:42;;;;;;;7.63;2.08;;;14.70;99.90;;;;;;5086374;28;20023;-78
2022/05/29 10:03:26;;;;;;;8.80;2.95;;;14.90;99.90;;;;;;5088747;28;20366;-81
2022/05/29 10:06:11;;;;;;;9.15;2.58;;;14.30;99.90;;;;;;5084061;28;20025;-82
2022/05/29 10:08:39;;;;;;;5.75;2.20;;;14.30;99.90;;;;;;5079433;28;20068;-83
2022/05/29 10:11:31;;;;;;;4.03;1.98;;;14.20;99.90;;;;;;5074757;28;20024;-73
2022/05/29 10:14:00;;;;;;;5.55;1.88;;;14.40;99.90;;;;;;5094156;28;20085;-77
2022/05/29 10:16:38;;;;;;;3.20;1.90;;;14.80;99.90;;;;;;5086231;28;20416;-77
2022/05/29 10:19:10;;;;;;;5.10;1.60;;;15.30;99.90;;;;;;5075539;28;20094;-77
2022/05/29 10:21:47;;;;;;;;;;;15.10;99.90;;;;;;5078323;28;20116;-77
2022/05/29 10:24:21;;;;;;;14.32;2.70;;;15.80;99.90;;;;;;5079584;28;19917;-77
2022/05/29 10:26:50;;;;;;;4.75;1.30;;;15.50;99.90;;;;;;5089093;28;20052;-77
2022/05/29 10:29:29;;;;;;;7.78;1.65;;;15.80;99.90;;;;;;5091426;28;20036;-74
2022/05/29 10:31:56;;;;;;;5.88;1.83;;;15.20;99.90;;;;;;5090463;28;20033;-76
2022/05/29 10:34:28;;;;;;;4.65;1.60;;;15.30;99.90;;;;;;5076539;28;20020;-77
2022/05/29 10:36:54;;;;;;;4.55;1.60;;;15.00;99.90;;;;;;5072316;28;20036;-77
2022/05/29 10:39:29;;;;;;;3.97;1.60;;;14.70;99.90;;;;;;5094919;28;20500;-76
2022/05/29 10:41:57;;;;;;;4.13;1.83;;;14.40;99.90;;;;;;5091023;28;20368;-77
2022/05/29 10:44:42;;;;;;;5.85;1.60;;;14.40;99.90;;;;;;5091471;28;20038;-77
2022/05/29 10:47:17;;;;;;;6.68;1.40;;;14.50;99.90;;;;;;5070464;28;20445;-76
2022/05/29 10:50:18;;;;;;;8.50;1.65;;;14.60;99.90;;;;;;5074007;28;20020;-81
2022/05/29 10:53:04;;;;;;;6.43;1.65;;;14.70;99.90;;;;;;5072596;28;20493;-82
2022/05/29 10:55:47;;;;;;;6.15;1.70;;;14.90;99.90;;;;;;5075252;28;20060;-81
2022/05/29 10:58:20;;;;;;;9.25;1.83;;;15.10;99.90;;;;;;5074467;28;20047;-81
2022/05/29 11:04:15;;;;;;;4.75;0.98;;;15.10;99.90;;;;;;5088616;28;20097;-80
2022/05/29 11:07:06;;;;;;;8.05;1.52;;;14.80;99.90;;;;;;5088587;28;20045;-81
2022/05/29 11:10:03;;;;;;;6.88;1.73;;;14.80;99.90;;;;;;5095948;28;20032;-82
2022/05/29 11:12:50;;;;;;;5.43;1.40;;;15.10;99.90;;;;;;5088158;28;20377;-82
2022/05/29 11:15:35;;;;;;;5.68;1.38;;;15.40;99.90;;;;;;5088744;28;20041;-83
2022/05/29 11:18:20;;;;;;;10.40;1.90;;;15.60;99.90;;;;;;5084978;28;20111;-83
2022/05/29 11:21:06;;;;;;;6.40;1.73;;;15.30;99.90;;;;;;5084559;28;20016;-84
2022/05/29 11:23:57;;;;;;;5.85;1.60;;;15.00;99.90;;;;;;5094847;28;20047;-84
2022/05/29 11:26:53;;;;;;;4.72;1.63;;;15.20;99.90;;;;;;5094637;28;20028;-84
2022/05/29 11:29:35;;;;;;;9.25;1.60;;;15.40;99.90;;;;;;5099084;28;20039;-84
2022/05/29 11:32:25;;;;;;;9.18;1.70;;;15.60;99.90;;;;;;5098960;28;20024;-81
2022/05/29 11:35:16;;;;;;;8.32;2.22;;;15.60;99.90;;;;;;5087140;28;20021;-81
2022/05/29 11:37:54;;;;;;;9.88;1.90;;;15.80;99.90;;;;;;5097599;28;20040;-79
2022/05/29 11:40:26;;;;;;;3.83;1.60;;;15.80;99.90;;;;;;5096433;28;20036;-82
2022/05/29 11:42:55;;;;;;;8.05;1.75;;;16.00;99.90;;;;;;5094507;28;20409;-82
2022/05/29 11:45:23;;;;;;;4.57;1.63;;;15.70;99.90;;;;;;5095383;28;20088;-82
2022/05/29 11:51:16;;;;;;;6.75;1.55;;;16.00;99.90;;;;;;5088976;28;20073;-81
2022/05/29 11:54:07;;;;;;;8.20;1.52;;;15.50;99.90;;;;;;5084507;28;20023;-81
2022/05/29 11:56:44;;;;;;;6.18;2.10;;;15.50;99.90;;;;;;5099480;28;20032;-82
2022/05/29 11:59:18;;;;;;;12.25;2.15;;;15.80;99.90;;;;;;5092451;28;20032;-82
2022/05/29 12:02:25;;;;;;;10.48;1.83;;;15.30;99.90;;;;;;5095162;28;20036;-82
2022/05/29 12:04:57;;;;;;;5.22;1.48;;;15.50;99.90;;;;;;5094690;28;20028;-82
2022/05/29 12:07:29;;;;;;;4.50;1.80;;;15.30;99.90;;;;;;5094958;28;20422;-83
2022/05/29 12:10:17;;;;;;;6.57;1.80;;;15.20;99.90;;;;;;5094130;28;20024;-82
2022/05/29 12:12:47;;;;;;;4.78;1.70;;;15.30;99.90;;;;;;5092488;28;20020;-82
2022/05/29 12:15:18;;;;;;;5.82;1.77;;;15.70;99.90;;;;;;5093367;28;20070;-84
2022/05/29 12:17:51;;;;;;;8.32;1.65;;;15.90;99.90;;;;;;5093678;28;20114;-82
2022/05/29 12:20:23;;;;;;;7.38;1.63;;;15.50;99.90;;;;;;5093504;28;20118;-82
2022/05/29 12:22:56;;;;;;;5.13;1.75;;;15.60;99.90;;;;;;5080053;28;20036;-81
2022/05/29 12:25:34;;;;;;;6.28;1.27;;;15.30;99.90;;;;;;5094663;28;20034;-82
2022/05/29 12:28:17;;;;;;;6.28;1.75;;;15.60;99.90;;;;;;5094631;28;20059;-83
2022/05/29 12:30:49;;;;;;;5.40;1.38;;;15.70;99.90;;;;;;5092703;28;20024;-76
2022/05/29 12:33:18;;;;;;;5.57;1.80;;;15.90;99.90;;;;;;5092612;28;20038;-82
2022/05/29 12:36:25;;;;;;;3.92;1.50;;;16.20;99.90;;;;;;5092861;28;20027;-83
2022/05/29 12:38:57;;;;;;;4.40;1.25;;;16.80;99.90;;;;;;5093093;28;20485;-83
2022/05/29 12:41:25;;;;;;;;;;;17.20;99.90;;;;;;5094059;28;20036;-81
2022/05/29 12:44:19;;;;;;;4.85;1.48;;;17.90;99.90;;;;;;5092641;28;20368;-83
2022/05/29 12:47:06;;;;;;;3.97;1.48;;;17.00;99.90;;;;;;5091412;28;20169;-82
2022/05/29 12:49:53;;;;;;;3.95;1.00;;;16.40;99.90;;;;;;5084145;28;20507;-81
2022/05/29 12:52:23;;;;;;;3.45;0.90;;;16.00;99.90;;;;;;5091425;28;20035;-82
2022/05/29 12:55:13;;;;;;;1.80;0.95;;;15.30;99.90;;;;;;5091030;28;20036;-82
2022/05/29 12:58:05;;;;;;;5.97;0.90;;;14.60;99.90;;;;;;5091151;28;20485;-85
2022/05/29 13:00:51;;;;;;;3.92;0.88;;;14.70;99.90;;;;;;5084452;28;20028;-82
2022/05/29 13:03:45;;;;;;;8.32;0.98;;;14.80;99.90;;;;;;5096361;28;20043;-82
2022/05/29 13:06:37;;;;;;;3.28;1.08;;;14.70;99.90;;;;;;5093189;28;20036;-85
2022/05/29 13:09:06;;;;;;;;;;;14.50;99.90;;;;;;5085280;28;20024;-82
2022/05/29 13:11:35;;;;;;;6.70;1.23;;;14.60;99.90;;;;;;5096649;28;19930;-83
2022/05/29 13:14:05;;;;;;;3.25;1.17;;;15.00;99.90;;;;;;5095908;28;20502;-81
2022/05/29 13:16:38;;;;;;;2.88;1.00;;;15.40;99.90;;;;;;5095625;28;20466;-78
2022/05/29 13:19:17;;;;;;;2.47;0.93;;;16.00;99.90;;;;;;5094909;28;20055;-83
2022/05/29 13:22:06;;;;;;;2.05;0.77;;;16.70;99.90;;;;;;5084756;28;20051;-82
2022/05/29 13:24:41;;;;;;;5.07;0.90;;;17.50;99.90;;;;;;5082210;28;20120;-83
2022/05/29 13:27:14;;;;;;;2.40;1.00;;;17.80;99.90;;;;;;5096022;28;20028;-80
2022/05/29 13:29:49;;;;;;;4.55;1.13;;;17.70;99.90;;;;;;5082230;28;20117;-83
2022/05/29 13:32:20;;;;;;;3.33;1.05;;;17.50;99.90;;;;;;5095706;28;20032;-82
2022/05/29 13:35:05;;;;;;;4.55;1.40;;;16.40;99.90;;;;;;5095810;28;20086;-83
2022/05/29 13:37:47;;;;;;;2.60;0.63;;;16.40;99.90;;;;;;5095743;28;20178;-82
2022/05/29 13:40:33;;;;;;;2.47;1.00;;;15.50;99.90;;;;;;5096494;28;20035;-81
2022/05/29 13:43:15;;;;;;;5.20;1.30;;;15.10;99.90;;;;;;5095832;28;20027;-82
2022/05/29 13:45:43;;;;;;;4.90;1.45;;;14.90;99.90;;;;;;5096485;28;20035;-81
2022/05/29 13:48:13;;;;;;;6.53;2.13;;;14.80;99.90;;;;;;5095653;28;20379;-82
2022/05/29 13:51:03;;;;;;;5.78;1.40;;;14.90;99.90;;;;;;5088994;28;20028;-83